Time;durP1;ratioP1;P1;durP2;ratioP2;P2;SDS_P1;SDS_P2;PMS_P1;PMS_P2;Temp;Humidity;BMP_temperature;BMP_pressure;BME280_temperature;BME280_humidity;BME280_pressure;Samples;Min_cycle;Max_cycle;Signal;HPM_P1;HPM_P2
2022/01/21 00:00:24;;;;;;;1.90;1.70;;;0.50;99.90;;;;;;459889;258;27970;-69
2022/01/21 00:02:27;;;;;;;2.33;2.15;;;0.50;99.90;;;;;;459890;258;28039;-68
2022/01/21 00:04:27;;;;;;;1.90;1.80;;;0.50;99.90;;;;;;459868;258;28035;-68
2022/01/21 00:06:28;;;;;;;1.98;1.87;;;0.60;99.90;;;;;;459872;258;27575;-68
2022/01/21 00:08:30;;;;;;;1.80;1.70;;;0.60;99.90;;;;;;459908;258;27468;-68
2022/01/21 00:10:31;;;;;;;2.20;2.10;;;0.50;99.90;;;;;;459882;258;27578;-68
2022/01/21 00:12:33;;;;;;;2.65;2.42;;;0.50;99.90;;;;;;459869;258;27458;-68
2022/01/21 00:14:33;;;;;;;2.28;2.17;;;0.60;99.90;;;;;;459871;258;27519;-68
2022/01/21 00:16:35;;;;;;;2.30;2.10;;;0.60;99.90;;;;;;459869;258;27486;-68
2022/01/21 00:18:36;;;;;;;3.60;2.15;;;0.60;99.90;;;;;;459900;258;27487;-68
2022/01/21 00:30:13;;;;;;;3.10;2.30;;;0.60;99.90;;;;;;459863;258;27511;-68
2022/01/21 00:32:04;;;;;;;2.05;1.90;;;0.60;99.90;;;;;;460125;258;27574;-68
2022/01/21 00:34:06;;;;;;;3.62;3.00;;;0.50;99.90;;;;;;459854;258;27614;-68
2022/01/21 00:36:09;;;;;;;1.90;1.80;;;0.40;99.90;;;;;;459882;258;27499;-68
2022/01/21 00:38:09;;;;;;;5.05;2.30;;;0.40;99.90;;;;;;459875;258;27619;-68
2022/01/21 00:40:12;;;;;;;3.80;2.47;;;0.40;99.90;;;;;;459859;258;27559;-68
2022/01/21 00:42:31;;;;;;;4.37;2.37;;;0.50;99.90;;;;;;459835;258;27525;-68
2022/01/21 00:44:13;;;;;;;2.65;2.45;;;0.50;99.90;;;;;;459936;258;28061;-68
2022/01/21 00:46:14;;;;;;;2.33;2.12;;;0.50;99.90;;;;;;459864;258;28011;-68
2022/01/21 00:48:16;;;;;;;2.30;2.10;;;0.50;99.90;;;;;;459876;258;28065;-68
2022/01/21 00:50:17;;;;;;;2.87;2.67;;;0.50;99.90;;;;;;460337;258;28029;-68
2022/01/21 00:52:18;;;;;;;2.20;2.00;;;0.50;99.90;;;;;;459879;258;27499;-68
2022/01/21 00:54:19;;;;;;;2.90;2.50;;;0.60;99.90;;;;;;459882;258;27584;-68
2022/01/21 00:56:21;;;;;;;3.15;2.33;;;0.60;99.90;;;;;;459856;258;27543;-68
2022/01/21 00:58:22;;;;;;;3.72;2.83;;;0.60;99.90;;;;;;459859;258;27567;-68
2022/01/21 01:00:23;;;;;;;3.55;2.00;;;0.50;99.90;;;;;;459847;258;27495;-68
2022/01/21 01:02:24;;;;;;;2.60;2.25;;;0.50;99.90;;;;;;459874;258;27546;-68
2022/01/21 01:04:26;;;;;;;3.95;2.78;;;0.50;99.90;;;;;;459879;258;27607;-68
2022/01/21 01:06:27;;;;;;;2.40;2.22;;;0.50;99.90;;;;;;459865;258;27625;-68
2022/01/21 01:08:28;;;;;;;2.30;2.08;;;0.50;99.90;;;;;;459865;258;27533;-68
2022/01/21 01:11:13;;;;;;;2.83;2.42;;;0.50;99.90;;;;;;459886;258;27728;-68
2022/01/21 01:13:02;;;;;;;4.95;2.28;;;0.60;99.90;;;;;;459931;258;27510;-68
2022/01/21 01:21:56;;;;;;;6.80;2.78;;;0.60;99.90;;;;;;459877;258;27499;-68
2022/01/21 01:28:23;;;;;;;3.55;3.25;;;0.40;99.90;;;;;;459871;258;28031;-68
2022/01/21 01:30:24;;;;;;;2.92;2.20;;;0.40;99.90;;;;;;460356;258;28071;-68
2022/01/21 01:32:27;;;;;;;2.65;2.45;;;0.30;99.90;;;;;;459862;258;27927;-68
2022/01/21 01:34:27;;;;;;;3.65;2.60;;;0.20;99.90;;;;;;459827;258;29068;-68
2022/01/21 01:36:28;;;;;;;7.28;2.70;;;0.10;99.90;;;;;;459895;258;27570;-68
2022/01/21 01:40:48;;;;;;;2.70;2.33;;;0.10;99.90;;;;;;459883;258;27623;-69
2022/01/21 01:49:35;;;;;;;3.62;2.40;;;0.00;99.90;;;;;;460354;257;27515;-68
2022/01/21 01:51:29;;;;;;;2.53;2.33;;;-0.10;99.90;;;;;;459730;258;27523;-68
2022/01/21 01:53:30;;;;;;;3.10;2.45;;;-0.10;99.90;;;;;;459837;258;27977;-68
2022/01/21 01:55:31;;;;;;;2.83;2.60;;;-0.10;99.90;;;;;;459850;258;28061;-68
2022/01/21 01:57:33;;;;;;;4.28;2.10;;;0.00;99.90;;;;;;459876;258;29190;-68
2022/01/21 01:59:34;;;;;;;3.25;2.60;;;0.10;99.90;;;;;;459864;258;28029;-68
2022/01/21 02:01:35;;;;;;;5.68;2.87;;;0.20;99.90;;;;;;459897;258;27523;-68
2022/01/21 02:03:36;;;;;;;2.92;2.60;;;0.20;99.90;;;;;;459849;258;27630;-68
2022/01/21 02:05:37;;;;;;;3.83;2.55;;;0.20;99.90;;;;;;459849;258;27563;-68
2022/01/21 02:07:39;;;;;;;5.72;2.40;;;0.10;99.90;;;;;;459908;258;27503;-68
2022/01/21 02:09:40;;;;;;;2.67;2.35;;;0.10;99.90;;;;;;459889;258;27474;-68
2022/01/21 02:11:41;;;;;;;3.20;2.90;;;0.10;99.90;;;;;;459887;258;27496;-68
2022/01/21 02:13:46;;;;;;;3.25;2.37;;;0.10;99.90;;;;;;459848;258;27475;-68
2022/01/21 02:15:44;;;;;;;2.30;2.10;;;0.10;99.90;;;;;;459880;258;27559;-68
2022/01/21 02:22:29;;;;;;;4.45;2.30;;;0.10;99.90;;;;;;460342;257;27479;-68
2022/01/21 02:24:35;;;;;;;3.60;2.25;;;0.00;99.90;;;;;;459867;258;27597;-68
2022/01/21 02:26:27;;;;;;;2.10;2.00;;;0.00;99.90;;;;;;459874;258;27499;-68
2022/01/21 02:28:28;;;;;;;2.40;2.20;;;0.00;99.90;;;;;;459894;258;27476;-68
2022/01/21 02:30:29;;;;;;;2.83;2.62;;;0.00;99.90;;;;;;459871;258;27509;-68
2022/01/21 02:32:30;;;;;;;2.22;2.10;;;0.00;99.90;;;;;;459880;258;27603;-68
2022/01/21 02:34:32;;;;;;;3.28;2.87;;;0.00;99.90;;;;;;459846;258;27543;-68
2022/01/21 02:36:33;;;;;;;4.62;2.87;;;-0.10;99.90;;;;;;459866;258;28399;-68
2022/01/21 02:38:34;;;;;;;2.20;2.10;;;-0.10;99.90;;;;;;459892;258;28084;-69
2022/01/21 02:40:35;;;;;;;3.42;2.50;;;0.00;99.90;;;;;;459889;258;29083;-68
2022/01/21 02:42:37;;;;;;;2.35;2.15;;;0.00;99.90;;;;;;459846;258;27472;-68
2022/01/21 02:44:39;;;;;;;3.83;2.50;;;0.00;99.90;;;;;;459859;258;27498;-68
2022/01/21 02:46:40;;;;;;;2.55;2.35;;;0.00;99.90;;;;;;459877;258;27506;-68
2022/01/21 02:48:40;;;;;;;5.30;2.30;;;-0.10;99.90;;;;;;459864;258;27544;-68
2022/01/21 02:50:42;;;;;;;4.57;2.95;;;-0.20;99.90;;;;;;459862;258;27501;-68
2022/01/21 02:52:55;;;;;;;4.43;2.58;;;-0.30;99.90;;;;;;459844;258;27476;-68
2022/01/21 02:54:44;;;;;;;2.55;2.10;;;-0.30;99.90;;;;;;459889;258;27515;-68
2022/01/21 02:56:47;;;;;;;3.28;2.37;;;-0.30;99.90;;;;;;459884;258;27503;-68
2022/01/21 02:58:48;;;;;;;2.45;2.25;;;-0.30;99.90;;;;;;459879;258;27501;-68
2022/01/21 03:00:51;;;;;;;2.17;2.08;;;-0.30;99.90;;;;;;459864;258;27559;-68
2022/01/21 03:02:50;;;;;;;3.28;2.15;;;-0.30;99.90;;;;;;459852;258;27931;-68
2022/01/21 03:05:02;;;;;;;4.05;2.70;;;-0.30;99.90;;;;;;459874;258;29160;-69
2022/01/21 03:06:53;;;;;;;2.95;2.45;;;-0.30;99.90;;;;;;459699;258;29108;-68
2022/01/21 03:08:54;;;;;;;2.10;2.00;;;-0.30;99.90;;;;;;459858;258;27518;-68
2022/01/21 03:10:56;;;;;;;2.37;2.20;;;-0.30;99.90;;;;;;459841;258;27482;-68
2022/01/21 03:12:57;;;;;;;2.17;1.98;;;-0.30;99.90;;;;;;459864;258;27499;-68
2022/01/21 03:14:58;;;;;;;2.60;2.40;;;-0.30;99.90;;;;;;459860;258;27604;-68
2022/01/21 03:16:59;;;;;;;3.17;2.20;;;-0.30;99.90;;;;;;459860;258;27511;-68
2022/01/21 03:19:01;;;;;;;3.40;2.35;;;-0.40;99.90;;;;;;459857;258;27601;-68
2022/01/21 03:21:02;;;;;;;2.67;2.47;;;-0.40;99.90;;;;;;459849;258;27963;-68
2022/01/21 03:23:03;;;;;;;3.47;2.10;;;-0.50;99.90;;;;;;459866;258;28093;-68
2022/01/21 03:25:04;;;;;;;3.22;2.40;;;-0.50;99.90;;;;;;460333;258;29108;-68
2022/01/21 03:27:05;;;;;;;2.40;2.20;;;-0.50;99.90;;;;;;459840;258;27941;-68
2022/01/21 03:29:07;;;;;;;2.40;2.20;;;-0.60;99.90;;;;;;459863;258;27495;-67
2022/01/21 03:31:09;;;;;;;10.85;2.60;;;-0.60;99.90;;;;;;459882;258;27499;-68
2022/01/21 03:33:11;;;;;;;6.72;2.70;;;-0.70;99.90;;;;;;459841;258;27503;-68
2022/01/21 03:35:12;;;;;;;8.10;3.17;;;-0.70;99.90;;;;;;459854;258;27974;-68
2022/01/21 03:37:13;;;;;;;2.70;2.10;;;-0.80;99.90;;;;;;459876;258;27927;-68
2022/01/21 03:39:14;;;;;;;3.00;2.45;;;-0.80;99.90;;;;;;459855;258;28097;-68
2022/01/21 03:41:16;;;;;;;4.05;2.45;;;-0.80;99.90;;;;;;459844;258;27454;-68
2022/01/21 03:43:17;;;;;;;3.30;2.78;;;-0.80;99.90;;;;;;459868;258;27594;-68
2022/01/21 03:45:19;;;;;;;3.72;2.55;;;-0.80;99.90;;;;;;459884;258;27506;-68
2022/01/21 03:47:21;;;;;;;2.62;2.42;;;-0.80;99.90;;;;;;459867;258;27530;-68
2022/01/21 03:49:22;;;;;;;2.83;2.55;;;-0.80;99.90;;;;;;459853;258;27466;-68
2022/01/21 03:51:23;;;;;;;3.92;2.70;;;-0.80;99.90;;;;;;459853;258;28061;-68
2022/01/21 03:53:24;;;;;;;2.95;2.33;;;-0.80;99.90;;;;;;459854;258;29234;-68
2022/01/21 03:55:26;;;;;;;3.00;2.10;;;-0.80;99.90;;;;;;459808;258;28020;-68
2022/01/21 03:57:27;;;;;;;2.25;2.05;;;-0.70;99.90;;;;;;459828;258;27988;-68
2022/01/21 03:59:28;;;;;;;3.35;2.45;;;-0.70;99.90;;;;;;459827;258;27455;-68
2022/01/21 04:01:29;;;;;;;3.05;2.60;;;-0.70;99.90;;;;;;459833;258;27629;-68
2022/01/21 04:03:31;;;;;;;5.25;2.95;;;-0.70;99.90;;;;;;459862;258;27577;-68
2022/01/21 04:05:32;;;;;;;5.20;2.72;;;-0.70;99.90;;;;;;459856;258;27571;-67
2022/01/21 04:07:33;;;;;;;4.72;3.22;;;-0.70;99.90;;;;;;459853;258;27527;-68
2022/01/21 04:09:34;;;;;;;5.53;2.50;;;-0.70;99.90;;;;;;459818;258;27571;-68
2022/01/21 04:11:36;;;;;;;3.50;2.78;;;-0.70;99.90;;;;;;459875;258;27480;-68
2022/01/21 04:13:37;;;;;;;2.62;2.53;;;-0.70;99.90;;;;;;459869;258;27966;-68
2022/01/21 04:15:38;;;;;;;5.10;2.30;;;-0.70;99.90;;;;;;459868;258;28024;-68
2022/01/21 04:17:39;;;;;;;2.65;2.20;;;-0.70;99.90;;;;;;459868;258;29107;-68
2022/01/21 04:19:41;;;;;;;2.05;1.95;;;-0.80;99.90;;;;;;459894;258;27556;-68
2022/01/21 04:21:42;;;;;;;5.00;2.40;;;-0.80;99.90;;;;;;459903;258;27550;-68
2022/01/21 04:23:43;;;;;;;5.12;2.72;;;-0.80;99.90;;;;;;459900;258;27574;-68
2022/01/21 04:25:44;;;;;;;2.25;2.08;;;-0.80;99.90;;;;;;459857;258;27455;-68
2022/01/21 04:27:46;;;;;;;2.65;2.47;;;-0.80;99.90;;;;;;459877;258;27494;-68
2022/01/21 04:29:47;;;;;;;3.35;2.83;;;-0.80;99.90;;;;;;459892;258;27498;-68
2022/01/21 04:31:48;;;;;;;2.87;2.45;;;-0.80;99.90;;;;;;459883;258;27570;-68
2022/01/21 04:33:49;;;;;;;3.22;2.65;;;-0.80;99.90;;;;;;459871;258;28066;-68
2022/01/21 04:35:51;;;;;;;2.55;2.37;;;-0.80;99.90;;;;;;459857;258;27941;-68
2022/01/21 04:37:56;;;;;;;6.28;2.55;;;-0.80;99.90;;;;;;459873;258;29050;-68
2022/01/21 04:40:04;;;;;;;2.95;2.42;;;-0.80;99.90;;;;;;459871;258;27326;-68
2022/01/21 04:48:56;;;;;;;2.87;2.30;;;-0.90;99.90;;;;;;459884;258;28093;-68
2022/01/21 04:51:00;;;;;;;2.30;2.20;;;-0.90;99.90;;;;;;459874;258;27458;-68
2022/01/21 04:52:58;;;;;;;3.12;2.92;;;-0.90;99.90;;;;;;459844;258;27498;-68
2022/01/21 04:54:59;;;;;;;2.67;2.45;;;-0.90;99.90;;;;;;459870;258;27586;-68
2022/01/21 04:57:01;;;;;;;2.70;2.50;;;-0.90;99.90;;;;;;459889;258;27475;-68
2022/01/21 04:59:02;;;;;;;2.35;2.25;;;-0.90;99.90;;;;;;459876;258;27630;-68
2022/01/21 05:01:05;;;;;;;3.62;2.60;;;-0.80;99.90;;;;;;459849;258;27460;-68
2022/01/21 05:03:04;;;;;;;2.50;2.33;;;-0.80;99.90;;;;;;459828;258;27527;-68
2022/01/21 05:05:07;;;;;;;2.35;2.25;;;-0.70;99.90;;;;;;459892;258;28023;-68
2022/01/21 05:07:09;;;;;;;3.12;2.50;;;-0.80;99.90;;;;;;459876;258;27998;-68
2022/01/21 05:09:08;;;;;;;4.28;2.90;;;-0.80;99.90;;;;;;459845;258;28060;-68
2022/01/21 05:11:09;;;;;;;2.65;2.45;;;-0.80;99.90;;;;;;459863;258;27582;-68
2022/01/21 05:13:11;;;;;;;2.92;2.62;;;-0.80;99.90;;;;;;459888;258;27462;-68
2022/01/21 05:15:29;;;;;;;3.17;2.70;;;-0.80;99.90;;;;;;459871;258;27538;-68
2022/01/21 05:17:23;;;;;;;3.80;3.25;;;-0.70;99.90;;;;;;459725;258;27963;-68
2022/01/21 05:19:24;;;;;;;3.28;2.80;;;-0.70;99.90;;;;;;459840;258;28022;-68
2022/01/21 05:21:25;;;;;;;3.50;2.90;;;-0.60;99.90;;;;;;459898;258;27931;-68
2022/01/21 05:23:26;;;;;;;3.12;3.03;;;-0.60;99.90;;;;;;460340;258;27499;-68
2022/01/21 05:25:27;;;;;;;4.68;3.20;;;-0.60;99.90;;;;;;459865;258;27544;-68
2022/01/21 05:27:29;;;;;;;3.33;2.87;;;-0.60;99.90;;;;;;459863;258;27495;-68
2022/01/21 05:29:30;;;;;;;3.40;3.10;;;-0.60;99.90;;;;;;459863;258;27584;-68
2022/01/21 05:31:31;;;;;;;3.67;2.90;;;-0.60;99.90;;;;;;459865;258;27506;-68
2022/01/21 05:33:32;;;;;;;2.47;2.28;;;-0.70;99.90;;;;;;459873;258;27599;-68
2022/01/21 05:35:34;;;;;;;2.72;2.53;;;-0.70;99.90;;;;;;459873;258;27376;-68
2022/01/21 05:37:35;;;;;;;2.80;2.60;;;-0.70;99.90;;;;;;459858;258;28039;-68
2022/01/21 05:39:36;;;;;;;3.30;3.00;;;-0.70;99.90;;;;;;459874;258;29250;-68
2022/01/21 05:41:38;;;;;;;4.43;2.55;;;-0.80;99.90;;;;;;459890;258;29103;-68
2022/01/21 05:43:44;;;;;;;4.10;2.90;;;-0.80;99.90;;;;;;459895;258;27582;-68
2022/01/21 05:48:00;;;;;;;3.20;3.00;;;-0.70;99.90;;;;;;459829;258;27499;-68
2022/01/21 05:50:01;;;;;;;4.62;3.22;;;-0.70;99.90;;;;;;460171;258;27515;-68
2022/01/21 05:52:08;;;;;;;4.80;2.97;;;-0.60;99.90;;;;;;459682;258;27544;-69
2022/01/21 05:54:04;;;;;;;3.17;2.87;;;-0.60;99.90;;;;;;459476;258;27914;-68
2022/01/21 05:56:05;;;;;;;5.03;2.97;;;-0.60;99.90;;;;;;459764;258;27973;-68
2022/01/21 05:58:06;;;;;;;3.92;3.05;;;-0.60;99.90;;;;;;459873;258;29150;-68
2022/01/21 06:00:07;;;;;;;2.90;2.70;;;-0.60;99.90;;;;;;459876;258;27529;-68
2022/01/21 06:02:08;;;;;;;6.50;3.08;;;-0.60;99.90;;;;;;459872;258;27551;-69
2022/01/21 06:04:10;;;;;;;3.08;2.87;;;-0.60;99.90;;;;;;459890;258;27499;-68
2022/01/21 06:06:11;;;;;;;5.68;3.20;;;-0.50;99.90;;;;;;459869;258;27575;-68
2022/01/21 06:08:12;;;;;;;4.97;3.85;;;-0.60;99.90;;;;;;459842;258;27462;-68
2022/01/21 06:10:13;;;;;;;4.05;3.50;;;-0.60;99.90;;;;;;459872;258;27495;-68
2022/01/21 06:12:15;;;;;;;5.40;3.87;;;-0.60;99.90;;;;;;459871;258;27537;-68
2022/01/21 06:14:16;;;;;;;3.70;3.40;;;-0.60;99.90;;;;;;459886;258;27930;-68
2022/01/21 06:16:18;;;;;;;4.28;3.25;;;-0.60;99.90;;;;;;459865;258;27990;-68
2022/01/21 06:18:18;;;;;;;6.43;4.15;;;-0.60;99.90;;;;;;459849;258;27926;-68
2022/01/21 06:20:20;;;;;;;4.20;3.50;;;-0.60;99.90;;;;;;459857;258;27501;-68
2022/01/21 06:22:21;;;;;;;5.32;3.42;;;-0.60;99.90;;;;;;459852;258;27495;-68
2022/01/21 06:24:22;;;;;;;5.32;3.28;;;-0.60;99.90;;;;;;459886;258;27450;-68
2022/01/21 06:26:23;;;;;;;3.97;3.00;;;-0.50;99.90;;;;;;459863;258;27627;-68
2022/01/21 06:28:25;;;;;;;3.67;2.67;;;-0.50;99.90;;;;;;459857;258;27475;-68
2022/01/21 06:30:26;;;;;;;3.33;3.10;;;-0.40;99.90;;;;;;459881;258;27541;-68
2022/01/21 06:32:27;;;;;;;2.92;2.70;;;-0.40;99.90;;;;;;459871;258;27514;-68
2022/01/21 06:34:28;;;;;;;3.90;3.30;;;-0.40;99.90;;;;;;459870;258;27930;-68
2022/01/21 06:36:30;;;;;;;3.35;3.05;;;-0.50;99.90;;;;;;459823;258;29216;-68
2022/01/21 06:38:31;;;;;;;4.45;2.60;;;-0.50;99.90;;;;;;459872;258;28947;-68
2022/01/21 06:40:32;;;;;;;3.20;2.90;;;-0.50;99.90;;;;;;459869;258;27464;-68
2022/01/21 06:42:33;;;;;;;3.42;3.00;;;-0.50;99.90;;;;;;459864;258;27499;-69
2022/01/21 06:44:35;;;;;;;4.55;3.30;;;-0.50;99.90;;;;;;459885;258;27472;-68
2022/01/21 06:46:36;;;;;;;4.53;2.70;;;-0.50;99.90;;;;;;459863;258;27523;-68
2022/01/21 06:48:37;;;;;;;5.62;2.87;;;-0.50;99.90;;;;;;459870;258;27498;-69
2022/01/21 06:50:38;;;;;;;2.80;2.60;;;-0.40;99.90;;;;;;459877;258;27575;-68
2022/01/21 06:52:40;;;;;;;3.55;2.85;;;-0.40;99.90;;;;;;459869;258;27533;-68
2022/01/21 06:54:41;;;;;;;3.50;3.10;;;-0.40;99.90;;;;;;459871;258;27922;-68
2022/01/21 06:56:42;;;;;;;4.22;3.08;;;-0.40;99.90;;;;;;459835;258;29191;-68
2022/01/21 06:58:43;;;;;;;4.47;3.22;;;-0.40;99.90;;;;;;459874;258;28044;-68
2022/01/21 07:00:45;;;;;;;5.03;2.75;;;-0.40;99.90;;;;;;459870;258;27550;-68
2022/01/21 07:02:46;;;;;;;3.00;2.50;;;-0.40;99.90;;;;;;459884;258;27519;-68
2022/01/21 07:04:48;;;;;;;3.30;3.00;;;-0.40;99.90;;;;;;459884;258;27463;-68
2022/01/21 07:06:48;;;;;;;3.70;3.15;;;-0.30;99.90;;;;;;459869;258;27578;-68
2022/01/21 07:08:51;;;;;;;3.50;3.20;;;-0.40;99.90;;;;;;459888;258;27511;-68
2022/01/21 07:10:53;;;;;;;3.10;2.80;;;-0.50;99.90;;;;;;460329;258;27507;-68
2022/01/21 07:12:54;;;;;;;4.50;2.92;;;-0.40;99.90;;;;;;459891;258;27499;-68
2022/01/21 07:14:55;;;;;;;3.87;3.03;;;-0.40;99.90;;;;;;459892;258;28087;-68
2022/01/21 07:16:56;;;;;;;5.00;3.28;;;-0.40;99.90;;;;;;459859;258;28005;-68
2022/01/21 07:18:58;;;;;;;3.50;3.10;;;-0.40;99.90;;;;;;459874;258;28018;-68
2022/01/21 07:20:59;;;;;;;4.80;3.67;;;-0.30;99.90;;;;;;459865;258;27594;-68
2022/01/21 07:23:00;;;;;;;3.40;3.10;;;-0.30;99.90;;;;;;459882;258;27602;-68
2022/01/21 07:25:01;;;;;;;3.00;2.70;;;-0.30;99.90;;;;;;459888;258;27513;-68
2022/01/21 07:27:03;;;;;;;2.92;2.72;;;-0.30;99.90;;;;;;459883;258;27625;-68
2022/01/21 07:29:04;;;;;;;3.05;2.75;;;-0.30;99.90;;;;;;459865;258;27560;-68
2022/01/21 07:31:05;;;;;;;4.25;3.53;;;-0.40;99.90;;;;;;459891;258;27575;-68
2022/01/21 07:33:07;;;;;;;4.07;2.95;;;-0.40;99.90;;;;;;459876;258;27539;-68
2022/01/21 07:35:09;;;;;;;6.07;3.28;;;-0.30;99.90;;;;;;459867;258;28051;-68
2022/01/21 07:37:09;;;;;;;4.80;3.25;;;-0.30;99.90;;;;;;459849;258;28066;-68
2022/01/21 07:39:10;;;;;;;5.40;3.28;;;-0.30;99.90;;;;;;459849;258;28707;-68
2022/01/21 07:41:11;;;;;;;4.22;3.58;;;-0.30;99.90;;;;;;459886;258;27455;-69
2022/01/21 07:43:13;;;;;;;3.22;3.00;;;-0.20;99.90;;;;;;459854;258;27542;-68
2022/01/21 07:45:14;;;;;;;3.53;3.22;;;-0.20;99.90;;;;;;459858;258;27450;-68
2022/01/21 07:47:15;;;;;;;3.37;3.08;;;-0.20;99.90;;;;;;459842;258;27510;-68
2022/01/21 07:49:16;;;;;;;3.75;3.40;;;-0.20;99.90;;;;;;459876;258;27498;-69
2022/01/21 07:51:18;;;;;;;3.60;3.30;;;-0.20;99.90;;;;;;459874;258;27567;-68
2022/01/21 07:53:19;;;;;;;3.37;3.08;;;-0.20;99.90;;;;;;459873;258;27498;-68
2022/01/21 07:55:20;;;;;;;3.75;3.00;;;-0.10;99.90;;;;;;459882;258;28050;-68
2022/01/21 07:57:21;;;;;;;4.30;3.35;;;-0.10;99.90;;;;;;459870;258;27949;-68
2022/01/21 07:59:23;;;;;;;3.65;3.35;;;0.00;99.90;;;;;;459895;258;27491;-68
2022/01/21 08:01:24;;;;;;;3.45;3.15;;;-0.10;99.90;;;;;;459902;258;27463;-68
2022/01/21 08:03:25;;;;;;;3.33;3.03;;;-0.10;99.90;;;;;;459882;258;27570;-68
2022/01/21 08:05:30;;;;;;;4.70;3.35;;;-0.10;99.90;;;;;;459856;258;27460;-68
2022/01/21 08:07:28;;;;;;;3.50;3.20;;;-0.10;99.90;;;;;;459881;258;27530;-68
2022/01/21 08:09:29;;;;;;;4.35;3.40;;;0.00;99.90;;;;;;459898;258;27526;-68
2022/01/21 08:11:30;;;;;;;4.70;3.20;;;0.00;99.90;;;;;;459878;258;27505;-68
2022/01/21 08:13:31;;;;;;;3.90;3.17;;;0.00;99.90;;;;;;459875;258;27516;-68
2022/01/21 08:15:33;;;;;;;8.10;3.70;;;0.10;99.90;;;;;;459848;258;27548;-68
2022/01/21 08:17:34;;;;;;;3.72;3.15;;;0.10;99.90;;;;;;459867;258;27928;-68
2022/01/21 08:19:35;;;;;;;3.30;3.00;;;0.10;99.90;;;;;;459868;258;28006;-69
2022/01/21 08:21:36;;;;;;;7.45;3.47;;;0.10;99.90;;;;;;459878;258;29160;-68
2022/01/21 08:23:38;;;;;;;5.95;3.20;;;0.20;99.90;;;;;;459866;258;29206;-68
2022/01/21 08:25:39;;;;;;;7.10;3.33;;;0.20;99.90;;;;;;459865;258;27559;-68
2022/01/21 08:27:40;;;;;;;3.22;2.92;;;0.30;99.90;;;;;;459890;258;27575;-68
2022/01/21 08:29:41;;;;;;;3.75;2.90;;;0.30;99.90;;;;;;459874;258;27501;-68
2022/01/21 08:31:44;;;;;;;5.03;3.37;;;0.40;99.90;;;;;;459872;258;27538;-68
2022/01/21 08:33:44;;;;;;;3.10;2.80;;;0.40;99.90;;;;;;459842;258;27569;-68
2022/01/21 08:35:45;;;;;;;2.92;2.60;;;0.40;99.90;;;;;;459896;258;27599;-68
2022/01/21 08:37:46;;;;;;;3.10;2.80;;;0.40;99.90;;;;;;459873;258;27555;-68
2022/01/21 08:39:48;;;;;;;4.00;3.20;;;0.50;99.90;;;;;;459868;258;27586;-68
2022/01/21 08:41:49;;;;;;;2.78;2.62;;;0.50;99.90;;;;;;459869;258;27471;-68
2022/01/21 08:43:50;;;;;;;2.50;2.30;;;0.50;99.90;;;;;;459874;258;27507;-68
2022/01/21 08:45:51;;;;;;;4.87;2.53;;;0.50;99.90;;;;;;459893;258;27970;-68
2022/01/21 08:47:53;;;;;;;5.87;2.70;;;0.60;99.90;;;;;;459905;258;27931;-68
2022/01/21 08:49:56;;;;;;;3.37;2.55;;;0.60;99.90;;;;;;459876;258;27984;-68
2022/01/21 08:51:57;;;;;;;2.80;2.60;;;0.60;99.90;;;;;;459865;258;28010;-68
2022/01/21 08:53:56;;;;;;;3.10;2.87;;;0.60;99.90;;;;;;459865;258;27488;-68
2022/01/21 08:55:58;;;;;;;2.83;2.20;;;0.60;99.90;;;;;;459894;258;27502;-68
2022/01/21 08:57:59;;;;;;;5.90;2.20;;;0.70;99.90;;;;;;459874;258;27476;-68
2022/01/21 09:00:00;;;;;;;6.20;2.55;;;0.70;99.90;;;;;;459876;258;27581;-68
2022/01/21 09:02:01;;;;;;;5.53;3.40;;;0.70;99.90;;;;;;459879;258;27452;-68
2022/01/21 09:04:03;;;;;;;3.55;2.53;;;0.70;99.90;;;;;;459876;258;27478;-68
2022/01/21 09:06:04;;;;;;;3.62;2.90;;;0.80;99.90;;;;;;459899;258;27506;-68
2022/01/21 09:08:05;;;;;;;3.97;2.40;;;0.80;99.90;;;;;;459884;258;27561;-68
2022/01/21 09:10:06;;;;;;;5.40;2.60;;;0.80;99.90;;;;;;459865;258;27502;-68
2022/01/21 09:12:08;;;;;;;6.10;2.58;;;0.90;99.90;;;;;;459864;258;27459;-68
2022/01/21 09:14:09;;;;;;;4.45;2.85;;;0.90;99.90;;;;;;459894;258;28051;-68
2022/01/21 09:16:10;;;;;;;3.65;2.40;;;1.00;99.90;;;;;;459875;258;28105;-68
2022/01/21 09:18:17;;;;;;;5.90;2.40;;;1.00;99.90;;;;;;459854;258;29074;-68
2022/01/21 09:20:13;;;;;;;3.85;2.70;;;1.00;99.90;;;;;;459871;258;28090;-69
2022/01/21 09:22:14;;;;;;;5.68;2.62;;;1.00;99.90;;;;;;459881;258;27534;-68
2022/01/21 09:24:15;;;;;;;3.10;2.80;;;1.10;99.90;;;;;;459902;258;28665;-68
2022/01/21 09:26:16;;;;;;;3.67;2.40;;;1.10;99.90;;;;;;459900;258;27502;-68
2022/01/21 09:28:19;;;;;;;5.10;2.47;;;1.20;99.90;;;;;;459897;258;28069;-68
2022/01/21 09:30:20;;;;;;;2.85;2.20;;;1.20;99.90;;;;;;460372;258;27925;-68
2022/01/21 09:32:21;;;;;;;3.45;2.55;;;1.20;99.90;;;;;;459865;258;27501;-68
2022/01/21 09:34:22;;;;;;;5.43;2.97;;;1.20;99.90;;;;;;459900;258;27490;-68
2022/01/21 09:36:23;;;;;;;5.30;2.72;;;1.30;99.90;;;;;;459894;258;27485;-68
2022/01/21 09:38:26;;;;;;;3.12;2.70;;;1.30;99.90;;;;;;459885;258;27507;-68
2022/01/21 09:40:26;;;;;;;4.15;2.50;;;1.40;99.90;;;;;;459893;258;27454;-68
2022/01/21 09:42:27;;;;;;;4.30;2.95;;;1.40;99.90;;;;;;459869;258;27569;-68
2022/01/21 09:44:30;;;;;;;7.47;2.83;;;1.40;99.90;;;;;;459908;258;27507;-68
2022/01/21 09:46:36;;;;;;;5.37;2.45;;;1.40;99.90;;;;;;459885;258;27645;-68
2022/01/21 09:48:48;;;;;;;5.55;2.80;;;1.50;99.90;;;;;;459849;258;27514;-68
2022/01/21 09:50:37;;;;;;;6.45;2.83;;;1.40;99.90;;;;;;459916;258;27562;-68
2022/01/21 09:52:37;;;;;;;6.45;2.90;;;1.40;99.90;;;;;;459847;258;27483;-68
2022/01/21 09:54:39;;;;;;;6.22;3.15;;;1.40;99.90;;;;;;459884;258;27580;-68
2022/01/21 09:56:40;;;;;;;7.50;3.42;;;1.50;99.90;;;;;;459882;258;27485;-68
2022/01/21 09:58:41;;;;;;;5.75;3.35;;;1.60;99.90;;;;;;459862;258;27514;-68
2022/01/21 10:00:42;;;;;;;6.65;2.70;;;1.60;99.90;;;;;;459858;258;27472;-68
2022/01/21 10:02:45;;;;;;;7.30;2.70;;;1.70;99.90;;;;;;459869;258;27474;-68
2022/01/21 10:04:49;;;;;;;6.22;3.00;;;1.80;99.90;;;;;;459831;258;27490;-68
2022/01/21 10:06:46;;;;;;;4.90;2.75;;;1.90;99.90;;;;;;459642;258;27451;-68
2022/01/21 10:08:47;;;;;;;7.70;2.80;;;2.00;99.90;;;;;;459848;258;28027;-68
2022/01/21 10:10:49;;;;;;;3.62;2.80;;;1.90;99.90;;;;;;459666;258;28679;-68
2022/01/21 10:12:50;;;;;;;5.50;3.65;;;2.00;99.90;;;;;;459867;258;27924;-68
2022/01/21 10:14:51;;;;;;;4.57;3.28;;;2.10;99.90;;;;;;459876;258;27977;-68
2022/01/21 10:16:52;;;;;;;6.05;2.72;;;2.00;99.90;;;;;;459840;258;27548;-69
2022/01/21 10:18:54;;;;;;;6.03;3.35;;;1.90;99.90;;;;;;459845;258;27511;-69
2022/01/21 10:20:55;;;;;;;5.55;3.10;;;1.90;99.90;;;;;;459871;258;27530;-68
2022/01/21 10:22:57;;;;;;;9.13;2.80;;;2.00;99.90;;;;;;459868;258;27536;-68
2022/01/21 10:24:59;;;;;;;2.37;2.15;;;2.10;99.90;;;;;;459871;258;27487;-68
2022/01/21 10:26:59;;;;;;;10.32;3.20;;;2.10;99.90;;;;;;459843;258;27470;-68
2022/01/21 10:29:00;;;;;;;7.78;3.33;;;2.10;99.90;;;;;;459842;258;27591;-68
2022/01/21 10:31:01;;;;;;;5.15;2.65;;;2.10;99.90;;;;;;459865;258;27541;-69
2022/01/21 10:33:03;;;;;;;7.20;3.03;;;2.10;99.90;;;;;;459863;258;27464;-69
2022/01/21 10:35:04;;;;;;;8.18;3.37;;;2.10;99.90;;;;;;459872;258;27591;-68
2022/01/21 10:37:09;;;;;;;6.82;3.03;;;2.10;99.90;;;;;;459829;258;28055;-68
2022/01/21 10:39:12;;;;;;;3.60;2.60;;;2.10;99.90;;;;;;459804;258;28004;-68
2022/01/21 10:41:10;;;;;;;3.87;2.75;;;2.00;99.90;;;;;;459859;258;27885;-68
2022/01/21 10:43:12;;;;;;;7.47;3.37;;;2.00;99.90;;;;;;459869;258;27581;-68
2022/01/21 10:45:13;;;;;;;4.82;3.00;;;2.10;99.90;;;;;;459867;258;27552;-68
2022/01/21 10:47:14;;;;;;;7.82;3.15;;;2.10;99.90;;;;;;459827;258;27511;-68
2022/01/21 10:49:15;;;;;;;4.25;2.87;;;2.10;99.90;;;;;;459853;258;28523;-68
2022/01/21 10:51:17;;;;;;;9.88;3.83;;;2.20;99.90;;;;;;459880;258;27952;-69
2022/01/21 10:53:18;;;;;;;5.90;2.90;;;2.30;99.90;;;;;;459867;258;28074;-68
2022/01/21 10:55:19;;;;;;;8.57;2.87;;;2.20;99.90;;;;;;459851;258;29019;-68
2022/01/21 10:57:20;;;;;;;5.72;2.70;;;2.30;99.90;;;;;;459843;258;27613;-68
2022/01/21 10:59:22;;;;;;;3.25;2.53;;;2.30;99.90;;;;;;459876;258;27514;-68
2022/01/21 11:01:25;;;;;;;4.00;2.72;;;2.30;99.90;;;;;;459855;258;27468;-68
2022/01/21 11:03:24;;;;;;;5.40;2.95;;;2.30;99.90;;;;;;459844;258;27528;-68
2022/01/21 11:05:30;;;;;;;5.35;3.00;;;2.30;99.90;;;;;;459844;258;27543;-68
2022/01/21 11:07:27;;;;;;;10.65;3.37;;;2.30;99.90;;;;;;459872;258;27605;-69
2022/01/21 11:09:32;;;;;;;5.35;2.62;;;2.50;99.90;;;;;;459882;258;27515;-69
2022/01/21 11:11:32;;;;;;;4.70;2.80;;;2.40;99.90;;;;;;459856;258;27982;-68
2022/01/21 11:13:33;;;;;;;6.43;2.80;;;2.50;99.90;;;;;;459865;258;27463;-68
2022/01/21 11:15:35;;;;;;;5.03;3.20;;;2.50;99.90;;;;;;459845;258;27490;-68
2022/01/21 11:17:40;;;;;;;3.50;2.60;;;2.40;99.90;;;;;;459839;258;27483;-68
2022/01/21 11:19:37;;;;;;;7.03;3.17;;;2.40;99.90;;;;;;459878;258;27536;-68